Time;durP1;ratioP1;P1;durP2;ratioP2;P2;SDS_P1;SDS_P2;PMS_P1;PMS_P2;Temp;Humidity;BMP_temperature;BMP_pressure;BME280_temperature;BME280_humidity;BME280_pressure;Samples;Min_cycle;Max_cycle;Signal;HPM_P1;HPM_P2
2021/04/12 00:00:34;;;;;;;26.37;17.32;;;;;;;6.37;50.39;101478.16;1808446;77;21591;-60
2021/04/12 00:03:13;;;;;;;26.85;17.95;;;;;;;6.35;50.75;101481.27;1787061;78;21561;-60
2021/04/12 00:06:10;;;;;;;32.45;19.62;;;;;;;6.29;51.02;101481.56;1778657;78;21203;-59
2021/04/12 00:09:00;;;;;;;31.00;18.07;;;;;;;6.24;51.40;101484.37;1792328;78;21143;-60
2021/04/12 00:11:47;;;;;;;29.45;18.30;;;;;;;6.23;51.60;101487.05;1802056;78;21104;-61
2021/04/12 00:14:31;;;;;;;27.77;15.90;;;;;;;6.19;51.88;101480.28;1802895;78;21366;-61
2021/04/12 00:17:13;;;;;;;24.25;16.35;;;;;;;6.16;52.05;101477.80;1789569;78;21138;-60
2021/04/12 00:19:54;;;;;;;30.37;19.02;;;;;;;6.14;52.27;101479.17;1798382;78;21165;-60
2021/04/12 00:22:38;;;;;;;30.50;17.90;;;;;;;6.11;52.71;101466.23;1808661;78;21555;-59
2021/04/12 00:25:23;;;;;;;27.05;16.95;;;;;;;6.07;52.66;101474.66;1783371;78;21137;-60
2021/04/12 00:27:59;;;;;;;25.37;17.12;;;;;;;6.04;52.28;101464.34;1781710;79;21268;-60
2021/04/12 00:30:36;;;;;;;27.25;15.72;;;;;;;6.00;51.93;101467.15;1773853;78;21608;-60
2021/04/12 00:33:21;;;;;;;33.18;18.92;;;;;;;5.94;51.86;101469.55;1752651;78;25885;-60
2021/04/12 00:36:16;;;;;;;27.98;16.70;;;;;;;5.91;51.87;101473.59;1783224;78;22242;-60
2021/04/12 00:39:07;;;;;;;27.22;17.50;;;;;;;5.88;51.73;101466.72;1765551;79;21136;-61
2021/04/12 00:41:54;;;;;;;27.25;17.45;;;;;;;5.84;52.14;101466.95;1696086;81;21224;-60
2021/04/12 00:44:43;;;;;;;28.60;16.93;;;;;;;5.79;52.53;101464.98;1799405;78;21171;-60
2021/04/12 00:47:33;;;;;;;24.12;16.32;;;;;;;5.76;52.95;101463.34;1764784;79;21203;-60
2021/04/12 00:50:40;;;;;;;25.65;16.57;;;;;;;5.74;52.94;101461.26;1750073;79;21104;-60
2021/04/12 00:53:50;;;;;;;26.45;16.73;;;;;;;5.70;52.50;101464.89;1785689;79;21580;-60
2021/04/12 00:56:35;;;;;;;27.90;16.90;;;;;;;5.65;52.03;101455.97;1775694;78;21214;-60
2021/04/12 00:59:38;;;;;;;30.37;19.20;;;;;;;5.62;51.61;101458.70;1752203;78;21160;-61
2021/04/12 01:02:40;;;;;;;24.23;16.57;;;;;;;5.61;51.44;101454.85;1775935;78;21246;-60
2021/04/12 01:05:18;;;;;;;24.35;16.90;;;;;;;5.56;51.25;101457.22;1809413;78;21223;-60
2021/04/12 01:08:12;;;;;;;27.35;18.48;;;;;;;5.50;51.18;101449.63;1809275;78;21147;-59
2021/04/12 01:11:02;;;;;;;32.35;18.12;;;;;;;5.46;51.18;101456.34;1775512;79;21520;-60
2021/04/12 01:14:10;;;;;;;28.77;18.60;;;;;;;5.40;51.15;101454.37;1769289;79;21203;-59
2021/04/12 01:17:16;;;;;;;30.90;18.98;;;;;;;5.40;51.07;101447.85;1745123;80;21184;-61
2021/04/12 01:20:05;;;;;;;31.70;18.45;;;;;;;5.37;50.98;101444.06;1770170;80;21172;-61
2021/04/12 01:23:18;;;;;;;27.32;17.87;;;;;;;5.34;51.04;101451.17;1748823;79;21582;-60
2021/04/12 01:26:26;;;;;;;28.32;18.32;;;;;;;5.32;51.41;101449.92;1746085;79;21459;-60
2021/04/12 01:29:48;;;;;;;33.92;20.30;;;;;;;5.29;51.59;101441.38;1756136;79;21210;-60
2021/04/12 01:32:36;;;;;;;32.90;20.43;;;;;;;5.23;51.74;101432.05;1793731;78;22269;-61
2021/04/12 01:35:58;;;;;;;32.05;20.30;;;;;;;5.16;51.91;101426.23;1783426;79;21219;-60
2021/04/12 01:38:38;;;;;;;34.50;19.70;;;;;;;5.15;52.02;101430.20;1786543;79;21179;-61
2021/04/12 01:41:42;;;;;;;32.55;19.62;;;;;;;5.13;52.01;101427.66;1785661;78;21611;-61
2021/04/12 01:44:21;;;;;;;30.08;18.23;;;;;;;5.14;51.99;101419.36;1791204;79;21401;-61
2021/04/12 01:47:18;;;;;;;28.75;17.90;;;;;;;5.10;52.20;101417.34;1755075;80;21239;-61
2021/04/12 01:50:11;;;;;;;40.12;18.85;;;;;;;5.06;52.48;101417.52;1782012;79;21123;-60
2021/04/12 01:53:02;;;;;;;31.75;18.48;;;;;;;5.06;52.65;101417.52;1769688;80;21219;-60
2021/04/12 01:55:55;;;;;;;31.73;18.48;;;;;;;5.07;52.77;101417.45;1800097;78;21387;-60
2021/04/12 01:59:04;;;;;;;25.68;17.50;;;;;;;5.09;52.84;101409.57;1780910;79;21199;-60
2021/04/12 02:02:07;;;;;;;34.00;18.23;;;;;;;5.10;53.06;101409.52;1782398;79;21112;-60
2021/04/12 02:04:58;;;;;;;31.00;19.62;;;;;;;5.06;53.36;101401.86;1782557;79;21144;-60
2021/04/12 02:07:49;;;;;;;29.02;18.87;;;;;;;5.05;52.82;101402.80;1784631;79;22007;-60
2021/04/12 02:10:58;;;;;;;32.08;16.77;;;;;;;5.07;53.17;101403.11;1794659;78;21217;-60
2021/04/12 02:14:10;;;;;;;33.05;18.20;;;;;;;5.10;53.14;101402.15;1709727;79;21151;-60
2021/04/12 02:17:18;;;;;;;27.13;16.65;;;;;;;5.11;53.20;101406.00;1760449;79;21175;-60
2021/04/12 02:20:09;;;;;;;30.62;18.25;;;;;;;5.10;52.84;101397.77;1786787;79;21192;-62
2021/04/12 02:23:22;;;;;;;31.23;17.42;;;;;;;5.09;52.61;101392.15;1786916;79;21167;-61
2021/04/12 02:26:23;;;;;;;28.87;18.05;;;;;;;5.12;53.02;101393.33;1784385;79;21226;-61
2021/04/12 02:29:05;;;;;;;24.43;18.17;;;;;;;5.13;52.38;101394.20;1785058;79;21124;-61
2021/04/12 02:32:07;;;;;;;28.77;18.70;;;;;;;5.15;51.76;101386.69;1747042;80;21159;-61
2021/04/12 02:35:29;;;;;;;36.10;20.88;;;;;;;5.21;51.61;101388.19;1781436;80;21180;-60
2021/04/12 02:41:58;;;;;;;31.80;21.23;;;;;;;5.30;51.56;101379.98;1805383;77;22654;-61
2021/04/12 02:44:45;;;;;;;30.82;20.08;;;;;;;5.32;51.46;101386.45;1706078;82;21225;-60
2021/04/12 02:47:40;;;;;;;31.80;20.00;;;;;;;5.37;51.16;101386.64;1728580;82;21743;-61
2021/04/12 02:50:43;;;;;;;35.17;20.85;;;;;;;5.43;50.68;101389.46;1760037;80;21176;-61
2021/04/12 02:53:50;;;;;;;31.07;20.37;;;;;;;5.48;50.61;101378.80;1772237;79;21159;-61
2021/04/12 02:56:36;;;;;;;;;;;;;;;5.49;50.48;101373.52;1749352;80;21195;-61
2021/04/12 02:59:31;;;;;;;35.17;22.98;;;;;;;5.50;50.64;101371.78;1771570;78;20268;-60
2021/04/12 03:02:39;;;;;;;32.40;21.50;;;;;;;5.44;50.93;101372.87;1765776;79;22294;-61
2021/04/12 03:05:34;;;;;;;39.83;23.83;;;;;;;5.43;51.12;101373.80;1783113;78;21036;-61
2021/04/12 03:08:28;;;;;;;35.52;21.40;;;;;;;5.42;51.22;101371.25;1779469;78;21215;-61
2021/04/12 03:11:52;;;;;;;39.13;22.48;;;;;;;5.40;51.14;101371.31;1747278;79;21140;-61
2021/04/12 03:14:35;;;;;;;37.65;22.02;;;;;;;5.40;51.12;101367.41;1740666;80;21159;-61
2021/04/12 03:17:42;;;;;;;35.75;21.37;;;;;;;5.37;51.31;101373.59;1708280;80;21222;-61
2021/04/12 03:20:39;;;;;;;37.63;23.18;;;;;;;5.39;51.51;101369.61;1774465;79;21164;-61
2021/04/12 03:23:32;;;;;;;35.08;23.07;;;;;;;5.38;51.86;101373.16;1771423;80;21125;-59
2021/04/12 03:26:38;;;;;;;35.08;20.62;;;;;;;5.37;52.07;101371.44;1773818;79;21184;-59
2021/04/12 03:29:36;;;;;;;32.73;21.00;;;;;;;5.38;52.35;101365.32;1769715;78;21148;-59
2021/04/12 03:32:25;;;;;;;37.53;24.40;;;;;;;5.38;52.79;101357.49;1752264;79;22439;-60
2021/04/12 03:35:21;;;;;;;36.15;22.60;;;;;;;5.39;53.09;101358.70;1773353;80;21192;-60
2021/04/12 03:38:12;;;;;;;44.65;25.30;;;;;;;5.39;53.39;101353.48;1726397;80;21654;-60
2021/04/12 03:40:59;;;;;;;33.63;22.60;;;;;;;5.43;53.18;101357.27;1715127;81;21752;-59
2021/04/12 03:43:33;;;;;;;;;;;;;;;5.45;53.15;101347.64;1716718;81;21132;-58
2021/04/12 03:46:20;;;;;;;32.93;22.25;;;;;;;5.49;53.29;101352.63;1735960;81;21132;-59
2021/04/12 03:49:29;;;;;;;40.15;25.57;;;;;;;5.48;53.64;101352.70;1728486;81;21638;-58
2021/04/12 03:52:46;;;;;;;38.95;22.82;;;;;;;5.52;54.03;101347.75;1732774;81;21133;-60
2021/04/12 03:55:30;;;;;;;44.83;23.12;;;;;;;5.56;54.26;101338.86;1710181;81;21219;-60
2021/04/12 03:58:36;;;;;;;39.83;23.98;;;;;;;5.58;54.45;101344.42;1735751;81;21175;-59
2021/04/12 04:01:19;;;;;;;40.65;23.27;;;;;;;5.59;54.83;101340.03;1709810;81;21160;-60
2021/04/12 04:04:16;;;;;;;40.15;25.08;;;;;;;5.62;55.28;101346.90;1721305;82;21179;-58
2021/04/12 04:06:59;;;;;;;44.25;25.32;;;;;;;5.64;55.62;101341.98;1727326;81;21207;-60
2021/04/12 04:09:56;;;;;;;35.98;24.00;;;;;;;5.68;55.71;101346.17;1731608;81;21212;-59
2021/04/12 04:12:44;;;;;;;34.25;22.55;;;;;;;5.70;55.72;101345.64;1693611;81;21139;-59
2021/04/12 04:15:29;;;;;;;34.08;22.85;;;;;;;5.79;57.42;101352.68;1731640;81;21184;-60
2021/04/12 04:18:24;;;;;;;40.00;23.32;;;;;;;6.07;56.15;101347.94;1728424;81;21239;-60
2021/04/12 04:21:21;;;;;;;42.15;27.00;;;;;;;6.33;55.48;101343.26;1690039;81;21307;-59
2021/04/12 04:24:34;;;;;;;47.05;26.87;;;;;;;6.51;55.47;101346.31;1734168;81;21820;-59
2021/04/12 04:27:07;;;;;;;45.23;27.55;;;;;;;6.65;55.42;101340.41;1681438;83;21239;-59
2021/04/12 04:30:17;;;;;;;40.50;26.40;;;;;;;6.76;54.22;101337.30;1722372;81;21239;-59
2021/04/12 04:32:58;;;;;;;42.80;27.32;;;;;;;6.77;53.77;101336.35;1701862;83;21773;-58
2021/04/12 04:36:07;;;;;;;39.38;25.88;;;;;;;6.75;53.43;101336.06;1689534;81;21223;-58
2021/04/12 04:39:31;;;;;;;47.27;25.72;;;;;;;6.73;53.21;101332.20;1660931;85;21270;-58
2021/04/12 04:42:25;;;;;;;42.70;25.70;;;;;;;6.75;53.58;101335.59;1659618;86;21227;-59
2021/04/12 04:45:28;;;;;;;36.93;22.80;;;;;;;6.80;53.75;101333.59;1658730;85;21271;-59
2021/04/12 04:48:43;;;;;;;40.17;25.05;;;;;;;6.90;52.61;101330.54;1640804;85;21242;-57
2021/04/12 04:51:58;;;;;;;39.90;25.90;;;;;;;6.94;52.16;101325.05;1626445;86;21234;-62
2021/04/12 04:54:46;;;;;;;39.08;25.08;;;;;;;7.00;52.19;101331.77;1634374;87;21219;-60
2021/04/12 04:57:34;;;;;;;46.70;26.02;;;;;;;7.04;52.00;101323.70;1612532;87;21254;-59
2021/04/12 05:00:35;;;;;;;42.60;26.40;;;;;;;7.05;51.85;101324.53;1609263;86;23248;-65
2021/04/12 05:03:15;;;;;;;46.23;25.15;;;;;;;7.04;51.75;101323.70;1536567;89;21299;-60
2021/04/12 05:06:27;;;;;;;41.33;26.42;;;;;;;7.03;51.64;101327.70;1598863;88;21215;-57
2021/04/12 05:09:04;;;;;;;44.10;25.82;;;;;;;7.04;51.18;101326.31;1603254;89;21227;-59
2021/04/12 05:12:03;;;;;;;36.08;22.22;;;;;;;7.04;51.05;101313.67;1624009;87;21222;-59
2021/04/12 05:15:08;;;;;;;45.28;26.82;;;;;;;7.08;51.22;101313.92;1630916;87;21246;-60
2021/04/12 05:17:59;;;;;;;38.80;22.87;;;;;;;7.15;51.07;101315.29;1604869;86;21259;-59
2021/04/12 05:20:53;;;;;;;41.60;25.05;;;;;;;7.21;51.30;101312.38;1637749;86;21167;-60
2021/04/12 05:23:52;;;;;;;38.25;23.98;;;;;;;7.29;51.23;101307.20;1635539;86;21175;-60
2021/04/12 05:26:30;;;;;;;41.98;23.75;;;;;;;7.38;51.07;101302.78;1613246;87;21203;-61
2021/04/12 05:29:15;;;;;;;39.67;25.45;;;;;;;7.49;51.16;101305.69;1596804;87;21214;-61
2021/04/12 05:32:17;;;;;;;38.28;24.77;;;;;;;7.59;50.91;101303.44;1633456;86;21198;-60
2021/04/12 05:35:20;;;;;;;38.88;25.90;;;;;;;7.67;51.05;101297.34;1604648;86;21239;-61
2021/04/12 05:38:11;;;;;;;39.08;24.80;;;;;;;7.75;50.91;101295.60;1612049;86;21235;-59
2021/04/12 05:41:12;;;;;;;37.05;24.35;;;;;;;7.83;50.56;101300.44;1606564;89;21299;-62
2021/04/12 05:44:13;;;;;;;40.33;26.37;;;;;;;7.95;50.51;101298.02;1832318;76;22678;-61
2021/04/12 05:47:06;;;;;;;35.28;23.77;;;;;;;8.00;49.83;101302.54;1796038;79;21088;-60
2021/04/12 05:49:52;;;;;;;42.17;27.40;;;;;;;8.09;49.33;101293.32;1737702;81;21216;-62
2021/04/12 05:53:00;;;;;;;42.57;26.67;;;;;;;8.19;49.10;101287.95;1739739;80;21241;-60
2021/04/12 05:55:56;;;;;;;42.55;25.65;;;;;;;8.31;48.74;101293.45;1693799;81;21194;-61
2021/04/12 05:58:53;;;;;;;41.48;23.02;;;;;;;8.41;48.74;101285.91;1796364;79;21227;-64
2021/04/12 06:02:08;;;;;;;39.05;24.55;;;;;;;8.55;48.60;101285.98;1785238;79;21243;-74
2021/04/12 06:05:03;;;;;;;40.70;25.25;;;;;;;8.66;48.01;101284.91;1807094;78;21194;-71
2021/04/12 06:07:46;;;;;;;35.23;23.27;;;;;;;8.79;47.79;101280.26;1745876;82;21214;-62
2021/04/12 06:11:02;;;;;;;37.28;22.05;;;;;;;8.92;47.89;101274.19;1745123;81;21187;-67
2021/04/12 06:14:25;;;;;;;30.10;20.52;;;;;;;9.06;47.67;101282.59;1742747;81;21210;-66
2021/04/12 06:17:22;;;;;;;32.63;24.23;;;;;;;9.22;47.63;101282.50;1771313;79;21160;-75
2021/04/12 06:20:15;;;;;;;33.30;22.32;;;;;;;9.39;47.21;101281.96;1743708;80;21216;-70
2021/04/12 06:23:28;;;;;;;30.32;22.67;;;;;;;9.54;46.90;101274.93;1752282;79;21221;-70
2021/04/12 06:26:19;;;;;;;31.07;22.15;;;;;;;9.69;46.72;101268.72;1798220;77;21658;-65
2021/04/12 06:28:59;;;;;;;30.00;21.10;;;;;;;9.82;46.28;101261.77;1799745;79;21640;-65
2021/04/12 06:32:03;;;;;;;34.70;21.62;;;;;;;10.00;45.76;101260.21;1800886;77;21202;-65
2021/04/12 06:35:07;;;;;;;30.70;20.57;;;;;;;10.15;44.89;101257.91;1770563;79;21144;-63
2021/04/12 06:38:09;;;;;;;32.95;20.80;;;;;;;10.28;43.90;101254.51;1794330;77;21183;-62
2021/04/12 06:41:10;;;;;;;28.90;19.27;;;;;;;10.38;44.16;101245.10;1805577;77;21156;-63
2021/04/12 06:44:12;;;;;;;27.60;18.48;;;;;;;10.51;43.92;101245.15;1804986;77;21187;-63
2021/04/12 06:47:20;;;;;;;32.17;20.70;;;;;;;10.63;43.59;101240.86;1794938;79;21183;-61
2021/04/12 06:50:38;;;;;;;29.35;20.20;;;;;;;10.77;43.38;101236.81;1799368;77;21226;-62
2021/04/12 06:53:28;;;;;;;30.32;19.70;;;;;;;10.92;43.21;101241.52;1795711;79;21175;-65
2021/04/12 06:56:06;;;;;;;29.23;20.20;;;;;;;11.08;42.65;101236.91;1767901;79;21143;-59
2021/04/12 06:59:06;;;;;;;24.55;17.20;;;;;;;11.22;42.71;101224.09;1798776;77;21140;-61
2021/04/12 07:02:02;;;;;;;29.37;18.55;;;;;;;11.39;42.67;101217.64;1803475;79;21243;-66
2021/04/12 07:05:01;;;;;;;26.02;17.12;;;;;;;11.58;42.23;101218.49;1795142;79;21807;-69
2021/04/12 07:08:12;;;;;;;20.15;14.50;;;;;;;11.77;41.09;101209.27;1790229;79;21215;-66
2021/04/12 07:11:23;;;;;;;20.52;13.10;;;;;;;11.95;41.09;101206.66;1768744;79;21172;-62
2021/04/12 07:14:00;;;;;;;15.48;11.57;;;;;;;12.18;39.89;101201.50;1797977;79;21156;-61
2021/04/12 07:17:03;;;;;;;21.05;10.93;;;;;;;12.39;38.22;101196.41;1770135;79;21099;-64
2021/04/12 07:20:18;;;;;;;24.10;11.40;;;;;;;12.56;37.70;101199.97;1799734;79;21211;-58
2021/04/12 07:23:26;;;;;;;18.45;11.57;;;;;;;12.74;37.18;101196.42;1794034;77;21681;-68
2021/04/12 07:26:25;;;;;;;15.93;9.45;;;;;;;12.91;36.91;101192.94;1805783;77;21570;-65
2021/04/12 07:29:10;;;;;;;16.10;9.80;;;;;;;13.06;36.28;101194.88;1801186;79;21156;-61
2021/04/12 07:32:01;;;;;;;13.40;9.13;;;;;;;13.19;36.07;101193.80;1799190;79;21192;-60
2021/04/12 07:35:04;;;;;;;16.67;9.75;;;;;;;13.32;34.74;101190.25;1794382;77;21198;-62
2021/04/12 07:37:57;;;;;;;14.43;8.55;;;;;;;13.45;34.85;101193.59;1795862;79;21556;-61
2021/04/12 07:41:05;;;;;;;11.08;7.28;;;;;;;13.59;33.51;101184.56;1766582;79;21167;-60
2021/04/12 07:44:16;;;;;;;14.68;9.10;;;;;;;13.67;32.83;101177.34;1802351;77;21155;-60
2021/04/12 07:47:20;;;;;;;14.98;8.65;;;;;;;13.74;33.11;101174.56;1801287;79;21161;-59
2021/04/12 07:50:54;;;;;;;14.07;8.00;;;;;;;13.82;32.06;101162.87;1797945;77;22778;-60
2021/04/12 07:53:53;;;;;;;13.35;7.90;;;;;;;13.82;31.86;101160.23;1774871;78;21464;-59
2021/04/12 07:57:05;;;;;;;14.75;8.73;;;;;;;13.85;32.31;101161.31;1716785;81;21202;-62
2021/04/12 08:00:04;;;;;;;11.35;7.97;;;;;;;13.92;32.94;101162.48;1675834;82;21227;-60
2021/04/12 08:05:56;;;;;;;13.05;6.90;;;;;;;14.02;32.69;101163.89;1679229;83;21293;-63
2021/04/12 08:08:47;;;;;;;13.22;6.47;;;;;;;14.12;32.72;101163.95;1673995;82;21167;-59
2021/04/12 08:11:56;;;;;;;11.08;6.15;;;;;;;14.18;32.13;101166.10;1679088;82;22579;-60
2021/04/12 08:14:41;;;;;;;10.65;5.97;;;;;;;14.22;32.12;101162.25;1701102;82;21232;-61
2021/04/12 08:17:45;;;;;;;11.55;5.47;;;;;;;14.27;32.16;101168.45;1698439;82;21172;-62
2021/04/12 08:20:56;;;;;;;10.85;6.20;;;;;;;14.26;31.71;101166.30;1701472;82;21175;-63
2021/04/12 08:24:09;;;;;;;14.38;7.00;;;;;;;14.26;31.96;101170.28;1596411;87;21205;-63
2021/04/12 08:27:10;;;;;;;8.60;5.53;;;;;;;14.26;32.53;101175.57;1589471;88;21345;-61
2021/04/12 08:30:21;;;;;;;11.10;6.70;;;;;;;14.26;32.50;101170.77;1663061;84;21304;-62
2021/04/12 08:33:35;;;;;;;12.88;6.17;;;;;;;14.28;33.26;101169.66;1699419;82;21409;-61
2021/04/12 08:36:17;;;;;;;12.23;6.42;;;;;;;14.34;32.70;101152.44;1700804;82;21198;-59
2021/04/12 08:39:08;;;;;;;12.13;6.30;;;;;;;14.34;32.95;101140.53;1656458;83;21119;-59
2021/04/12 08:42:06;;;;;;;10.08;5.12;;;;;;;14.37;32.78;101140.73;1646892;83;21411;-61
2021/04/12 08:44:49;;;;;;;8.05;4.83;;;;;;;14.41;32.53;101136.39;1703659;82;21179;-60
2021/04/12 08:48:14;;;;;;;9.18;5.25;;;;;;;14.44;32.88;101128.66;1717111;81;21575;-59
2021/04/12 08:51:07;;;;;;;8.70;5.00;;;;;;;14.45;32.96;101135.64;1707204;82;21279;-59
2021/04/12 08:53:49;;;;;;;8.65;4.92;;;;;;;14.44;33.02;101132.63;1699228;82;21238;-59
2021/04/12 08:56:45;;;;;;;10.13;5.87;;;;;;;14.43;33.11;101124.34;1694778;82;22085;-60
2021/04/12 08:59:39;;;;;;;10.08;5.87;;;;;;;14.39;33.48;101117.61;1697366;82;26656;-58
2021/04/12 09:02:27;;;;;;;16.00;6.85;;;;;;;14.38;33.79;101110.66;1671984;84;21210;-59
2021/04/12 09:05:26;;;;;;;12.78;7.17;;;;;;;14.35;34.41;101097.67;1709589;81;22247;-63
2021/04/12 09:08:26;;;;;;;12.58;6.70;;;;;;;14.34;35.45;101103.92;1642722;85;21173;-62
2021/04/12 09:11:36;;;;;;;11.60;7.05;;;;;;;14.31;36.50;101111.17;1686756;83;21167;-61
2021/04/12 09:14:40;;;;;;;12.23;6.25;;;;;;;14.36;37.02;101099.37;1668160;84;21159;-60
2021/04/12 09:17:25;;;;;;;13.50;8.45;;;;;;;14.49;37.63;101099.97;1680643;83;21167;-59
2021/04/12 09:20:19;;;;;;;16.05;9.33;;;;;;;14.63;36.71;101095.70;1683519;83;21671;-58
2021/04/12 09:23:22;;;;;;;12.30;8.18;;;;;;;14.72;37.02;101091.91;1682310;83;21768;-57
2021/04/12 09:26:17;;;;;;;13.50;7.95;;;;;;;14.81;37.16;101085.80;1682898;83;21595;-60
2021/04/12 09:29:15;;;;;;;14.50;8.45;;;;;;;14.87;37.16;101081.30;1758384;79;22854;-57
2021/04/12 09:32:16;;;;;;;16.50;9.55;;;;;;;14.82;36.98;101076.40;1729304;82;21511;-60
2021/04/12 09:35:18;;;;;;;14.13;9.33;;;;;;;14.75;37.50;101073.94;1649760;82;21188;-60
2021/04/12 09:38:03;;;;;;;16.10;8.80;;;;;;;14.61;38.00;101069.84;1706239;82;21672;-60
2021/04/12 09:40:46;;;;;;;10.65;7.28;;;;;;;14.53;38.25;101068.80;1724217;82;21069;-62
2021/04/12 09:43:49;;;;;;;10.50;7.33;;;;;;;14.50;37.84;101069.89;1722884;82;21481;-60
2021/04/12 09:46:40;;;;;;;11.18;8.03;;;;;;;14.45;37.77;101069.45;1727023;82;21207;-60
2021/04/12 09:49:26;;;;;;;12.75;7.17;;;;;;;14.39;37.46;101060.69;1714069;82;21242;-60
2021/04/12 09:52:34;;;;;;;12.47;7.67;;;;;;;14.35;37.55;101060.12;1691211;82;21226;-64
2021/04/12 09:55:22;;;;;;;13.65;6.87;;;;;;;14.35;37.40;101050.85;1697123;82;21196;-62
2021/04/12 09:58:01;;;;;;;14.13;6.87;;;;;;;14.35;36.60;101046.05;1730418;80;21263;-68
2021/04/12 10:00:55;;;;;;;15.48;8.43;;;;;;;14.39;37.24;101048.77;1724310;80;21247;-62
2021/04/12 10:04:08;;;;;;;10.72;7.17;;;;;;;14.43;37.32;101044.91;1696910;82;21743;-62
2021/04/12 10:07:00;;;;;;;13.32;6.28;;;;;;;14.49;36.59;101045.22;1728329;82;21216;-64
2021/04/12 10:10:08;;;;;;;11.55;5.80;;;;;;;14.51;36.50;101043.77;1728180;82;21243;-61
2021/04/12 10:13:03;;;;;;;10.48;5.62;;;;;;;14.52;36.47;101045.43;1725953;82;21555;-61
2021/04/12 10:15:49;;;;;;;9.78;5.60;;;;;;;14.49;37.80;101048.34;1730335;80;21527;-61
2021/04/12 10:18:40;;;;;;;9.98;5.90;;;;;;;14.45;38.67;101046.94;1703967;82;21194;-62
2021/04/12 10:21:32;;;;;;;13.93;6.10;;;;;;;14.43;38.75;101047.06;1709121;81;21569;-61
2021/04/12 10:24:19;;;;;;;10.93;6.25;;;;;;;14.42;39.28;101052.49;1731825;82;21514;-62
2021/04/12 10:27:01;;;;;;;11.88;6.62;;;;;;;14.41;39.74;101054.31;1722888;82;21219;-63
2021/04/12 10:29:42;;;;;;;17.12;7.60;;;;;;;14.43;40.20;101057.66;1701331;82;21204;-64
2021/04/12 10:32:27;;;;;;;13.13;7.97;;;;;;;14.47;39.94;101063.06;1704386;82;21218;-63
2021/04/12 10:35:10;;;;;;;13.13;7.20;;;;;;;14.49;39.72;101066.88;1726599;82;21211;-64
2021/04/12 10:38:02;;;;;;;13.00;8.68;;;;;;;14.50;40.03;101066.74;1704604;82;21195;-62
2021/04/12 10:40:35;;;;;;;15.00;8.45;;;;;;;14.51;40.30;101068.93;1738445;82;21191;-63
2021/04/12 10:43:28;;;;;;;11.97;8.20;;;;;;;14.46;40.35;101064.52;1722370;82;21224;-61
2021/04/12 10:46:18;;;;;;;11.57;8.05;;;;;;;14.43;40.67;101063.45;1730162;82;21562;-63
2021/04/12 10:49:11;;;;;;;14.28;8.25;;;;;;;14.46;41.30;101060.55;1730304;82;21630;-63
2021/04/12 10:52:04;;;;;;;14.30;9.70;;;;;;;14.47;41.75;101065.70;1710045;82;21231;-60
2021/04/12 10:54:54;;;;;;;13.70;9.10;;;;;;;14.45;42.66;101066.80;1704638;82;21229;-63
2021/04/12 10:57:35;;;;;;;13.50;9.38;;;;;;;14.40;44.30;101071.16;1721312;82;21160;-62
2021/04/12 11:00:20;;;;;;;14.65;8.58;;;;;;;14.32;45.71;101069.64;1739695;82;21231;-62
2021/04/12 11:03:27;;;;;;;14.98;8.35;;;;;;;14.23;46.92;101072.59;1736371;82;21212;-62
2021/04/12 11:06:42;;;;;;;19.95;8.80;;;;;;;14.14;47.27;101077.35;1697367;83;21757;-62
2021/04/12 11:09:36;;;;;;;12.95;9.53;;;;;;;14.06;48.58;101080.63;1730983;82;21239;-62
2021/04/12 11:12:18;;;;;;;17.40;10.03;;;;;;;13.89;49.46;101080.71;1726539;82;21160;-62
2021/04/12 11:15:03;;;;;;;14.80;10.03;;;;;;;13.74;49.77;101083.31;1723607;82;21208;-63
2021/04/12 11:17:37;;;;;;;16.70;10.85;;;;;;;13.60;50.70;101080.48;1731811;82;21221;-63
2021/04/12 11:20:17;;;;;;;14.28;9.55;;;;;;;13.44;51.49;101079.55;1727197;82;21176;-64
2021/04/12 11:23:00;;;;;;;15.45;10.10;;;;;;;13.35;51.64;101078.99;1697686;82;21132;-63
2021/04/12 11:25:55;;;;;;;17.52;10.85;;;;;;;13.28;52.80;101074.65;1737437;82;21209;-62
2021/04/12 11:28:38;;;;;;;18.77;10.80;;;;;;;13.18;52.49;101079.00;1697821;81;21226;-64
2021/04/12 11:31:23;;;;;;;17.70;11.60;;;;;;;13.05;52.94;101076.48;1736488;81;21148;-64
2021/04/12 11:34:12;;;;;;;18.02;10.88;;;;;;;12.97;52.76;101065.68;1713185;81;21108;-63
2021/04/12 11:37:14;;;;;;;15.63;11.35;;;;;;;12.93;52.91;101061.13;1715538;83;21210;-64
2021/04/12 11:39:50;;;;;;;16.15;11.03;;;;;;;12.95;53.14;101053.91;1705532;83;21143;-61
2021/04/12 11:53:22;;;;;;;16.62;11.08;;;;;;;12.69;53.70;101049.35;1757857;80;22987;-62
2021/04/12 11:56:38;;;;;;;17.05;11.50;;;;;;;12.59;53.83;101047.08;1797867;78;23871;-62
2021/04/12 11:59:46;;;;;;;16.32;11.12;;;;;;;12.51;53.77;101041.09;1685201;83;21582;-64
2021/04/12 12:02:49;;;;;;;15.72;11.28;;;;;;;12.49;53.95;101036.87;1663014;83;21574;-63
2021/04/12 12:05:28;;;;;;;16.10;10.20;;;;;;;12.42;54.30;101029.91;1765378;78;21188;-59
2021/04/12 12:07:59;;;;;;;16.73;12.23;;;;;;;12.38;54.83;101032.44;1768992;79;21254;-60
2021/04/12 12:10:41;;;;;;;22.67;12.15;;;;;;;12.36;54.88;101027.28;1768645;80;21152;-59
2021/04/12 12:13:37;;;;;;;18.85;11.73;;;;;;;12.35;55.12;101022.12;1767145;78;21219;-57
2021/04/12 12:16:31;;;;;;;16.50;11.45;;;;;;;12.32;55.17;101019.70;1767909;80;21211;-58
2021/04/12 12:19:29;;;;;;;18.05;11.50;;;;;;;12.30;55.07;101015.03;1776435;78;21197;-57
2021/04/12 12:22:19;;;;;;;20.05;12.37;;;;;;;12.27;54.99;101020.05;1772172;78;21188;-56
2021/04/12 12:25:10;;;;;;;19.37;13.03;;;;;;;12.26;55.04;101015.27;1767865;80;21149;-57
2021/04/12 12:27:45;;;;;;;16.10;10.95;;;;;;;12.25;55.16;101012.75;1776747;79;21117;-57
2021/04/12 12:30:34;;;;;;;15.53;11.30;;;;;;;12.29;55.08;101015.98;1772417;78;22736;-59
2021/04/12 12:33:33;;;;;;;18.75;10.25;;;;;;;12.36;54.39;101014.57;1799846;77;22754;-57
2021/04/12 12:36:12;;;;;;;19.25;10.95;;;;;;;12.33;53.75;101016.95;1750899;80;21022;-57
2021/04/12 12:39:07;;;;;;;15.00;9.85;;;;;;;12.32;53.48;101019.22;1774722;78;21389;-57
2021/04/12 12:41:52;;;;;;;14.58;8.60;;;;;;;12.34;53.51;101015.14;1876828;74;22817;-56
2021/04/12 12:44:23;;;;;;;15.48;9.93;;;;;;;12.28;53.82;101019.11;1754279;80;21203;-56
2021/04/12 12:46:50;;;;;;;15.43;9.93;;;;;;;12.25;53.97;101010.11;1802287;78;21313;-57
2021/04/12 12:49:27;;;;;;;16.75;10.20;;;;;;;12.22;54.17;101007.70;1778916;79;21153;-56
2021/04/12 12:51:58;;;;;;;15.93;10.15;;;;;;;12.19;54.27;101008.79;1749918;80;21176;-57
2021/04/12 12:54:46;;;;;;;13.75;9.40;;;;;;;12.18;54.48;101008.91;1781895;78;21203;-57
2021/04/12 12:57:31;;;;;;;15.45;10.50;;;;;;;12.16;54.61;101005.55;1753984;79;21219;-57
2021/04/12 13:00:10;;;;;;;15.93;11.18;;;;;;;12.16;54.94;101013.47;1781002;78;21224;-56
2021/04/12 13:02:40;;;;;;;17.35;11.88;;;;;;;12.13;55.00;101018.97;1741574;80;21496;-55
2021/04/12 13:05:31;;;;;;;20.35;10.85;;;;;;;12.14;55.32;101018.00;1770973;80;21225;-55
2021/04/12 13:08:23;;;;;;;14.95;10.45;;;;;;;12.15;55.50;101019.69;1782095;80;21184;-56
2021/04/12 13:10:53;;;;;;;18.85;10.78;;;;;;;12.17;55.61;101019.09;1772156;78;21132;-56
2021/04/12 13:13:30;;;;;;;17.12;12.35;;;;;;;12.18;55.63;101018.14;1749575;80;21504;-56
2021/04/12 13:16:16;;;;;;;22.85;11.57;;;;;;;12.19;55.66;101022.47;1747649;80;21567;-56
2021/04/12 13:19:00;;;;;;;17.80;10.80;;;;;;;12.21;55.55;101018.74;1804536;77;21147;-56
2021/04/12 13:21:30;;;;;;;19.65;12.07;;;;;;;12.23;55.51;101017.30;1810141;78;21147;-56
2021/04/12 13:24:27;;;;;;;18.73;12.60;;;;;;;12.25;54.60;101011.42;1778409;79;21158;-56
2021/04/12 13:27:14;;;;;;;17.30;10.88;;;;;;;12.26;54.48;101013.12;1790996;77;21176;-58
2021/04/12 13:29:52;;;;;;;18.30;11.80;;;;;;;12.25;54.12;101014.06;1764215;79;21124;-60
2021/04/12 13:32:28;;;;;;;16.35;12.28;;;;;;;12.28;53.93;101013.83;1792575;79;21196;-61
2021/04/12 13:35:08;;;;;;;15.15;10.88;;;;;;;12.35;53.69;101010.24;1782724;79;21466;-62
2021/04/12 13:37:52;;;;;;;23.07;12.65;;;;;;;12.43;53.12;101011.81;1792189;79;21185;-63